sensor_id;sensor_type;location;lat;lon;timestamp;temperature;humidity
65369;HTU21D;51970;53.484;49.488;2022-08-24T00:01:19;17.32;66.65
65369;HTU21D;51970;53.484;49.488;2022-08-24T00:03:47;17.33;67.01
65369;HTU21D;51970;53.484;49.488;2022-08-24T00:06:17;17.28;66.80
65369;HTU21D;51970;53.484;49.488;2022-08-24T00:08:45;17.28;66.63
65369;HTU21D;51970;53.484;49.488;2022-08-24T00:11:12;17.17;66.82
65369;HTU21D;51970;53.484;49.488;2022-08-24T00:13:38;17.13;66.77
65369;HTU21D;51970;53.484;49.488;2022-08-24T00:16:08;17.15;66.72
65369;HTU21D;51970;53.484;49.488;2022-08-24T00:18:35;17.15;66.79
65369;HTU21D;51970;53.484;49.488;2022-08-24T00:21:01;17.09;66.74
65369;HTU21D;51970;53.484;49.488;2022-08-24T00:23:28;17.07;67.10
65369;HTU21D;51970;53.484;49.488;2022-08-24T00:25:54;17.04;67.49
65369;HTU21D;51970;53.484;49.488;2022-08-24T00:28:20;17.01;67.72
65369;HTU21D;51970;53.484;49.488;2022-08-24T00:30:46;16.92;68.15
65369;HTU21D;51970;53.484;49.488;2022-08-24T00:33:12;16.82;68.52
65369;HTU21D;51970;53.484;49.488;2022-08-24T00:35:38;16.75;68.51
65369;HTU21D;51970;53.484;49.488;2022-08-24T00:38:05;16.70;68.50
65369;HTU21D;51970;53.484;49.488;2022-08-24T00:40:40;16.61;68.87
65369;HTU21D;51970;53.484;49.488;2022-08-24T00:43:08;16.58;69.23
65369;HTU21D;51970;53.484;49.488;2022-08-24T00:46:45;16.55;69.58
65369;HTU21D;51970;53.484;49.488;2022-08-24T00:49:00;16.57;69.37
65369;HTU21D;51970;53.484;49.488;2022-08-24T00:51:36;16.60;69.25
65369;HTU21D;51970;53.484;49.488;2022-08-24T00:54:08;16.61;69.05
65369;HTU21D;51970;53.484;49.488;2022-08-24T00:56:41;16.60;69.30
65369;HTU21D;51970;53.484;49.488;2022-08-24T00:59:15;16.50;69.50
65369;HTU21D;51970;53.484;49.488;2022-08-24T01:01:42;16.41;69.60
65369;HTU21D;51970;53.484;49.488;2022-08-24T01:04:15;16.42;69.74
65369;HTU21D;51970;53.484;49.488;2022-08-24T01:06:43;16.48;69.74
65369;HTU21D;51970;53.484;49.488;2022-08-24T01:09:10;16.54;69.64
65369;HTU21D;51970;53.484;49.488;2022-08-24T01:11:36;16.50;69.65
65369;HTU21D;51970;53.484;49.488;2022-08-24T01:14:03;16.50;69.86
65369;HTU21D;51970;53.484;49.488;2022-08-24T01:16:29;16.48;69.84
65369;HTU21D;51970;53.484;49.488;2022-08-24T01:19:43;16.46;69.87
65369;HTU21D;51970;53.484;49.488;2022-08-24T01:25:23;16.41;70.58
65369;HTU21D;51970;53.484;49.488;2022-08-24T01:27:50;16.39;70.55
65369;HTU21D;51970;53.484;49.488;2022-08-24T01:30:18;16.39;70.01
65369;HTU21D;51970;53.484;49.488;2022-08-24T01:35:20;16.45;69.45
65369;HTU21D;51970;53.484;49.488;2022-08-24T01:37:47;16.39;70.01
65369;HTU21D;51970;53.484;49.488;2022-08-24T01:40:13;16.40;69.62
65369;HTU21D;51970;53.484;49.488;2022-08-24T01:42:40;16.36;69.56
65369;HTU21D;51970;53.484;49.488;2022-08-24T01:45:11;16.40;69.82
65369;HTU21D;51970;53.484;49.488;2022-08-24T01:47:37;16.41;69.57
65369;HTU21D;51970;53.484;49.488;2022-08-24T01:50:04;16.45;69.53
65369;HTU21D;51970;53.484;49.488;2022-08-24T01:52:30;16.48;69.27
65369;HTU21D;51970;53.484;49.488;2022-08-24T01:54:56;16.54;69.32
65369;HTU21D;51970;53.484;49.488;2022-08-24T01:57:25;16.59;68.92
65369;HTU21D;51970;53.484;49.488;2022-08-24T01:59:52;16.70;68.67
65369;HTU21D;51970;53.484;49.488;2022-08-24T02:02:24;16.95;67.61
65369;HTU21D;51970;53.484;49.488;2022-08-24T02:04:51;16.95;67.58
65369;HTU21D;51970;53.484;49.488;2022-08-24T02:07:18;17.00;67.58
65369;HTU21D;51970;53.484;49.488;2022-08-24T02:09:44;17.11;67.39
65369;HTU21D;51970;53.484;49.488;2022-08-24T02:12:12;17.48;66.36
65369;HTU21D;51970;53.484;49.488;2022-08-24T02:14:38;18.62;62.63
65369;HTU21D;51970;53.484;49.488;2022-08-24T02:17:06;19.62;59.20
65369;HTU21D;51970;53.484;49.488;2022-08-24T02:19:32;20.42;56.59
65369;HTU21D;51970;53.484;49.488;2022-08-24T02:21:59;21.01;54.84
65369;HTU21D;51970;53.484;49.488;2022-08-24T02:24:27;21.37;53.78
65369;HTU21D;51970;53.484;49.488;2022-08-24T02:26:54;21.81;52.62
65369;HTU21D;51970;53.484;49.488;2022-08-24T02:29:20;22.23;51.43
65369;HTU21D;51970;53.484;49.488;2022-08-24T02:31:46;22.46;50.82
65369;HTU21D;51970;53.484;49.488;2022-08-24T02:34:13;22.85;49.82
65369;HTU21D;51970;53.484;49.488;2022-08-24T02:36:39;22.96;49.18
65369;HTU21D;51970;53.484;49.488;2022-08-24T02:39:06;23.25;48.74
65369;HTU21D;51970;53.484;49.488;2022-08-24T02:41:33;23.38;48.47
65369;HTU21D;51970;53.484;49.488;2022-08-24T02:43:59;23.75;47.54
65369;HTU21D;51970;53.484;49.488;2022-08-24T02:46:27;23.94;47.00
65369;HTU21D;51970;53.484;49.488;2022-08-24T02:48:54;23.86;46.73
65369;HTU21D;51970;53.484;49.488;2022-08-24T02:51:31;23.95;46.57
65369;HTU21D;51970;53.484;49.488;2022-08-24T02:54:00;24.09;46.22
65369;HTU21D;51970;53.484;49.488;2022-08-24T02:56:27;24.64;45.12
65369;HTU21D;51970;53.484;49.488;2022-08-24T02:58:58;24.73;44.66
65369;HTU21D;51970;53.484;49.488;2022-08-24T03:01:24;24.73;44.58
65369;HTU21D;51970;53.484;49.488;2022-08-24T03:03:51;24.76;45.00
65369;HTU21D;51970;53.484;49.488;2022-08-24T03:06:17;25.13;44.20
65369;HTU21D;51970;53.484;49.488;2022-08-24T03:08:43;24.13;46.93
65369;HTU21D;51970;53.484;49.488;2022-08-24T03:11:10;22.34;51.73
65369;HTU21D;51970;53.484;49.488;2022-08-24T03:13:37;21.08;55.79
65369;HTU21D;51970;53.484;49.488;2022-08-24T03:16:04;20.32;58.68
65369;HTU21D;51970;53.484;49.488;2022-08-24T03:18:31;19.98;58.53
65369;HTU21D;51970;53.484;49.488;2022-08-24T03:20:58;19.72;58.22
65369;HTU21D;51970;53.484;49.488;2022-08-24T03:23:25;19.47;59.12
65369;HTU21D;51970;53.484;49.488;2022-08-24T03:25:52;19.47;60.00
65369;HTU21D;51970;53.484;49.488;2022-08-24T03:28:20;19.54;60.75
65369;HTU21D;51970;53.484;49.488;2022-08-24T03:30:46;19.75;60.92
65369;HTU21D;51970;53.484;49.488;2022-08-24T03:33:13;19.91;60.63
65369;HTU21D;51970;53.484;49.488;2022-08-24T03:35:39;19.98;60.28
65369;HTU21D;51970;53.484;49.488;2022-08-24T03:38:05;20.06;60.25
65369;HTU21D;51970;53.484;49.488;2022-08-24T03:40:32;20.22;60.11
65369;HTU21D;51970;53.484;49.488;2022-08-24T03:43:00;20.35;59.73
65369;HTU21D;51970;53.484;49.488;2022-08-24T03:45:27;20.49;59.73
65369;HTU21D;51970;53.484;49.488;2022-08-24T03:47:53;20.66;59.67
65369;HTU21D;51970;53.484;49.488;2022-08-24T03:50:21;20.76;59.21
65369;HTU21D;51970;53.484;49.488;2022-08-24T03:52:48;20.93;59.01
65369;HTU21D;51970;53.484;49.488;2022-08-24T03:55:14;21.14;58.68
65369;HTU21D;51970;53.484;49.488;2022-08-24T03:57:40;21.06;58.96
65369;HTU21D;51970;53.484;49.488;2022-08-24T04:00:09;21.17;59.07
65369;HTU21D;51970;53.484;49.488;2022-08-24T04:02:36;21.28;58.46
65369;HTU21D;51970;53.484;49.488;2022-08-24T04:05:04;21.27;58.41
65369;HTU21D;51970;53.484;49.488;2022-08-24T04:07:32;21.40;58.18
65369;HTU21D;51970;53.484;49.488;2022-08-24T04:09:59;21.60;57.96
65369;HTU21D;51970;53.484;49.488;2022-08-24T04:12:26;21.75;55.79
65369;HTU21D;51970;53.484;49.488;2022-08-24T04:14:52;22.06;53.81
65369;HTU21D;51970;53.484;49.488;2022-08-24T04:17:20;22.16;52.96
65369;HTU21D;51970;53.484;49.488;2022-08-24T04:19:46;22.41;53.49
65369;HTU21D;51970;53.484;49.488;2022-08-24T04:22:29;22.42;52.74
65369;HTU21D;51970;53.484;49.488;2022-08-24T04:24:56;22.42;52.04
65369;HTU21D;51970;53.484;49.488;2022-08-24T04:27:22;22.58;51.85
65369;HTU21D;51970;53.484;49.488;2022-08-24T04:29:48;22.70;50.97
65369;HTU21D;51970;53.484;49.488;2022-08-24T04:32:14;22.78;51.07
65369;HTU21D;51970;53.484;49.488;2022-08-24T04:34:42;22.90;49.60
65369;HTU21D;51970;53.484;49.488;2022-08-24T04:37:09;22.96;49.63
65369;HTU21D;51970;53.484;49.488;2022-08-24T04:39:35;23.05;50.10
65369;HTU21D;51970;53.484;49.488;2022-08-24T04:42:02;23.17;49.13
65369;HTU21D;51970;53.484;49.488;2022-08-24T04:44:28;23.31;49.33
65369;HTU21D;51970;53.484;49.488;2022-08-24T04:46:54;23.57;48.84
65369;HTU21D;51970;53.484;49.488;2022-08-24T04:49:21;23.77;48.92
65369;HTU21D;51970;53.484;49.488;2022-08-24T04:51:47;23.88;48.05
65369;HTU21D;51970;53.484;49.488;2022-08-24T04:54:14;23.95;47.04
65369;HTU21D;51970;53.484;49.488;2022-08-24T04:56:40;24.00;47.15
65369;HTU21D;51970;53.484;49.488;2022-08-24T04:59:07;24.05;47.18
65369;HTU21D;51970;53.484;49.488;2022-08-24T05:01:33;24.12;46.96
65369;HTU21D;51970;53.484;49.488;2022-08-24T05:03:59;24.20;46.18
65369;HTU21D;51970;53.484;49.488;2022-08-24T05:06:28;24.38;45.77
65369;HTU21D;51970;53.484;49.488;2022-08-24T05:08:55;24.45;46.27
65369;HTU21D;51970;53.484;49.488;2022-08-24T05:11:22;24.62;46.56
65369;HTU21D;51970;53.484;49.488;2022-08-24T05:13:50;24.75;44.38
65369;HTU21D;51970;53.484;49.488;2022-08-24T05:16:17;24.83;44.29
65369;HTU21D;51970;53.484;49.488;2022-08-24T05:18:44;24.87;43.29
65369;HTU21D;51970;53.484;49.488;2022-08-24T05:21:13;24.91;43.63
65369;HTU21D;51970;53.484;49.488;2022-08-24T05:23:40;24.93;43.67
65369;HTU21D;51970;53.484;49.488;2022-08-24T05:26:08;24.92;43.71
65369;HTU21D;51970;53.484;49.488;2022-08-24T05:28:35;25.02;43.97
65369;HTU21D;51970;53.484;49.488;2022-08-24T05:31:16;25.05;42.90
65369;HTU21D;51970;53.484;49.488;2022-08-24T05:33:42;25.05;43.15
65369;HTU21D;51970;53.484;49.488;2022-08-24T05:38:51;25.29;43.06
65369;HTU21D;51970;53.484;49.488;2022-08-24T05:41:18;25.36;41.37
65369;HTU21D;51970;53.484;49.488;2022-08-24T05:43:44;25.51;41.80
65369;HTU21D;51970;53.484;49.488;2022-08-24T05:46:12;25.66;42.26
65369;HTU21D;51970;53.484;49.488;2022-08-24T05:48:38;25.88;40.36
65369;HTU21D;51970;53.484;49.488;2022-08-24T05:51:06;25.86;40.39
65369;HTU21D;51970;53.484;49.488;2022-08-24T05:53:32;25.95;40.21
65369;HTU21D;51970;53.484;49.488;2022-08-24T05:56:03;26.03;39.65
65369;HTU21D;51970;53.484;49.488;2022-08-24T05:58:29;25.95;39.28
65369;HTU21D;51970;53.484;49.488;2022-08-24T06:00:55;26.11;39.36
65369;HTU21D;51970;53.484;49.488;2022-08-24T06:03:21;26.12;39.19
65369;HTU21D;51970;53.484;49.488;2022-08-24T06:05:47;26.17;37.91
65369;HTU21D;51970;53.484;49.488;2022-08-24T06:08:14;26.03;37.58
65369;HTU21D;51970;53.484;49.488;2022-08-24T06:10:42;26.13;39.29
65369;HTU21D;51970;53.484;49.488;2022-08-24T06:13:10;26.34;38.07
65369;HTU21D;51970;53.484;49.488;2022-08-24T06:15:37;26.60;37.44
65369;HTU21D;51970;53.484;49.488;2022-08-24T06:18:05;26.69;46.40
65369;HTU21D;51970;53.484;49.488;2022-08-24T06:20:32;26.51;48.21
65369;HTU21D;51970;53.484;49.488;2022-08-24T06:23:01;26.50;47.63
65369;HTU21D;51970;53.484;49.488;2022-08-24T06:25:27;26.55;47.09
65369;HTU21D;51970;53.484;49.488;2022-08-24T06:28:12;26.54;47.00
65369;HTU21D;51970;53.484;49.488;2022-08-24T06:30:38;26.66;46.95
65369;HTU21D;51970;53.484;49.488;2022-08-24T06:33:04;26.89;46.96
65369;HTU21D;51970;53.484;49.488;2022-08-24T06:35:31;27.02;46.18
65369;HTU21D;51970;53.484;49.488;2022-08-24T06:37:57;27.13;45.41
65369;HTU21D;51970;53.484;49.488;2022-08-24T06:40:23;27.07;45.45
65369;HTU21D;51970;53.484;49.488;2022-08-24T06:42:50;27.10;45.50
65369;HTU21D;51970;53.484;49.488;2022-08-24T06:45:17;27.12;44.61
65369;HTU21D;51970;53.484;49.488;2022-08-24T06:47:43;27.17;44.67
65369;HTU21D;51970;53.484;49.488;2022-08-24T06:50:09;27.19;45.11
65369;HTU21D;51970;53.484;49.488;2022-08-24T06:52:36;27.22;44.87
65369;HTU21D;51970;53.484;49.488;2022-08-24T06:55:04;27.26;44.78
65369;HTU21D;51970;53.484;49.488;2022-08-24T06:57:31;27.34;44.74
65369;HTU21D;51970;53.484;49.488;2022-08-24T06:59:57;27.35;44.77
65369;HTU21D;51970;53.484;49.488;2022-08-24T07:02:23;27.08;45.61
65369;HTU21D;51970;53.484;49.488;2022-08-24T07:04:49;26.96;45.98
65369;HTU21D;51970;53.484;49.488;2022-08-24T07:07:16;27.00;46.19
65369;HTU21D;51970;53.484;49.488;2022-08-24T07:09:42;27.04;45.85
65369;HTU21D;51970;53.484;49.488;2022-08-24T07:12:08;27.12;45.67
65369;HTU21D;51970;53.484;49.488;2022-08-24T07:14:34;27.25;45.10
65369;HTU21D;51970;53.484;49.488;2022-08-24T07:17:00;27.26;45.30
65369;HTU21D;51970;53.484;49.488;2022-08-24T07:19:26;27.41;44.19
65369;HTU21D;51970;53.484;49.488;2022-08-24T07:21:56;27.46;44.19
65369;HTU21D;51970;53.484;49.488;2022-08-24T07:24:24;27.43;43.77
65369;HTU21D;51970;53.484;49.488;2022-08-24T07:26:50;27.43;44.03
65369;HTU21D;51970;53.484;49.488;2022-08-24T07:29:17;27.56;43.64
65369;HTU21D;51970;53.484;49.488;2022-08-24T07:31:44;27.65;43.80
65369;HTU21D;51970;53.484;49.488;2022-08-24T07:34:10;27.56;43.71
65369;HTU21D;51970;53.484;49.488;2022-08-24T07:36:37;27.55;43.71
65369;HTU21D;51970;53.484;49.488;2022-08-24T07:39:06;27.63;43.48
65369;HTU21D;51970;53.484;49.488;2022-08-24T07:41:37;27.69;43.42
65369;HTU21D;51970;53.484;49.488;2022-08-24T07:44:04;27.76;43.71
65369;HTU21D;51970;53.484;49.488;2022-08-24T07:46:30;28.11;43.29
65369;HTU21D;51970;53.484;49.488;2022-08-24T07:48:57;28.31;41.59
65369;HTU21D;51970;53.484;49.488;2022-08-24T07:51:23;28.30;41.46
65369;HTU21D;51970;53.484;49.488;2022-08-24T07:53:51;28.58;41.63
65369;HTU21D;51970;53.484;49.488;2022-08-24T07:56:17;28.59;41.86
65369;HTU21D;51970;53.484;49.488;2022-08-24T07:58:44;28.45;41.55
65369;HTU21D;51970;53.484;49.488;2022-08-24T08:01:10;28.50;41.39
65369;HTU21D;51970;53.484;49.488;2022-08-24T08:03:37;28.38;41.91
65369;HTU21D;51970;53.484;49.488;2022-08-24T08:06:08;28.34;41.98
65369;HTU21D;51970;53.484;49.488;2022-08-24T08:08:35;28.34;41.93
65369;HTU21D;51970;53.484;49.488;2022-08-24T08:11:02;28.37;41.83
65369;HTU21D;51970;53.484;49.488;2022-08-24T08:13:29;28.38;41.47
65369;HTU21D;51970;53.484;49.488;2022-08-24T08:15:56;28.39;41.20
65369;HTU21D;51970;53.484;49.488;2022-08-24T08:18:24;28.50;41.45
65369;HTU21D;51970;53.484;49.488;2022-08-24T08:20:51;28.53;39.63
65369;HTU21D;51970;53.484;49.488;2022-08-24T08:23:17;28.63;40.35
65369;HTU21D;51970;53.484;49.488;2022-08-24T08:26:03;28.95;39.54
65369;HTU21D;51970;53.484;49.488;2022-08-24T08:28:31;28.95;38.93
65369;HTU21D;51970;53.484;49.488;2022-08-24T08:31:02;28.84;39.56
65369;HTU21D;51970;53.484;49.488;2022-08-24T08:33:28;28.83;39.22
65369;HTU21D;51970;53.484;49.488;2022-08-24T08:38:29;29.26;37.78
65369;HTU21D;51970;53.484;49.488;2022-08-24T08:43:56;29.53;36.41
65369;HTU21D;51970;53.484;49.488;2022-08-24T08:46:59;29.61;33.75
65369;HTU21D;51970;53.484;49.488;2022-08-24T08:54:47;29.98;34.24
65369;HTU21D;51970;53.484;49.488;2022-08-24T08:57:31;30.05;33.34
65369;HTU21D;51970;53.484;49.488;2022-08-24T09:00:13;30.12;32.54
65369;HTU21D;51970;53.484;49.488;2022-08-24T09:11:40;30.35;30.88
65369;HTU21D;51970;53.484;49.488;2022-08-24T09:22:41;30.05;30.11
65369;HTU21D;51970;53.484;49.488;2022-08-24T09:25:31;30.31;31.13
65369;HTU21D;51970;53.484;49.488;2022-08-24T09:39:44;30.55;30.38
65369;HTU21D;51970;53.484;49.488;2022-08-24T09:42:31;30.55;30.29
65369;HTU21D;51970;53.484;49.488;2022-08-24T09:54:29;30.72;30.03
65369;HTU21D;51970;53.484;49.488;2022-08-24T10:05:32;30.92;28.50
65369;HTU21D;51970;53.484;49.488;2022-08-24T10:13:49;30.69;28.26
65369;HTU21D;51970;53.484;49.488;2022-08-24T10:19:36;30.63;27.22
65369;HTU21D;51970;53.484;49.488;2022-08-24T10:30:48;30.97;26.59
65369;HTU21D;51970;53.484;49.488;2022-08-24T10:36:02;31.28;25.42
65369;HTU21D;51970;53.484;49.488;2022-08-24T10:39:02;31.43;23.74
65369;HTU21D;51970;53.484;49.488;2022-08-24T10:56:03;31.29;23.45
65369;HTU21D;51970;53.484;49.488;2022-08-24T10:58:49;31.29;23.69
65369;HTU21D;51970;53.484;49.488;2022-08-24T11:01:34;31.26;23.98
65369;HTU21D;51970;53.484;49.488;2022-08-24T11:04:12;31.23;23.97
65369;HTU21D;51970;53.484;49.488;2022-08-24T11:07:14;31.16;24.59
65369;HTU21D;51970;53.484;49.488;2022-08-24T11:10:00;31.21;23.55
65369;HTU21D;51970;53.484;49.488;2022-08-24T11:12:41;31.24;24.10
65369;HTU21D;51970;53.484;49.488;2022-08-24T11:18:00;31.34;23.34
65369;HTU21D;51970;53.484;49.488;2022-08-24T11:20:30;31.42;23.27
65369;HTU21D;51970;53.484;49.488;2022-08-24T11:23:02;31.51;22.30
65369;HTU21D;51970;53.484;49.488;2022-08-24T11:25:32;31.38;21.72
65369;HTU21D;51970;53.484;49.488;2022-08-24T11:28:10;31.24;23.62
65369;HTU21D;51970;53.484;49.488;2022-08-24T11:30:40;31.36;22.51
65369;HTU21D;51970;53.484;49.488;2022-08-24T11:33:34;31.38;23.56
65369;HTU21D;51970;53.484;49.488;2022-08-24T11:36:16;31.40;23.05
65369;HTU21D;51970;53.484;49.488;2022-08-24T11:38:42;31.24;23.82
65369;HTU21D;51970;53.484;49.488;2022-08-24T11:41:15;31.24;22.96
65369;HTU21D;51970;53.484;49.488;2022-08-24T11:52:18;31.37;22.47
65369;HTU21D;51970;53.484;49.488;2022-08-24T11:57:29;31.65;23.31
65369;HTU21D;51970;53.484;49.488;2022-08-24T12:05:11;31.13;22.63
65369;HTU21D;51970;53.484;49.488;2022-08-24T12:07:59;31.14;21.90
65369;HTU21D;51970;53.484;49.488;2022-08-24T12:13:32;31.20;20.63
65369;HTU21D;51970;53.484;49.488;2022-08-24T12:16:16;31.29;21.06
65369;HTU21D;51970;53.484;49.488;2022-08-24T12:19:02;31.44;20.61
65369;HTU21D;51970;53.484;49.488;2022-08-24T12:21:32;31.51;20.77
65369;HTU21D;51970;53.484;49.488;2022-08-24T12:24:04;31.53;20.70
65369;HTU21D;51970;53.484;49.488;2022-08-24T12:26:46;31.53;20.32
65369;HTU21D;51970;53.484;49.488;2022-08-24T12:29:28;31.61;20.09
65369;HTU21D;51970;53.484;49.488;2022-08-24T12:34:59;31.74;20.29
65369;HTU21D;51970;53.484;49.488;2022-08-24T12:37:37;31.69;19.99
65369;HTU21D;51970;53.484;49.488;2022-08-24T12:43:24;31.81;19.91
65369;HTU21D;51970;53.484;49.488;2022-08-24T12:45:55;31.70;20.57
65369;HTU21D;51970;53.484;49.488;2022-08-24T12:48:37;31.66;20.93
65369;HTU21D;51970;53.484;49.488;2022-08-24T13:02:05;31.35;20.86
65369;HTU21D;51970;53.484;49.488;2022-08-24T13:04:39;31.33;21.53
65369;HTU21D;51970;53.484;49.488;2022-08-24T13:07:10;31.27;20.96
65369;HTU21D;51970;53.484;49.488;2022-08-24T13:09:42;31.21;20.77
65369;HTU21D;51970;53.484;49.488;2022-08-24T13:17:50;31.09;24.10
65369;HTU21D;51970;53.484;49.488;2022-08-24T13:25:54;30.78;24.08
65369;HTU21D;51970;53.484;49.488;2022-08-24T13:33:40;30.45;26.02
65369;HTU21D;51970;53.484;49.488;2022-08-24T13:42:17;30.17;26.55
65369;HTU21D;51970;53.484;49.488;2022-08-24T14:01:57;29.64;27.12
65369;HTU21D;51970;53.484;49.488;2022-08-24T14:07:02;29.51;27.11
65369;HTU21D;51970;53.484;49.488;2022-08-24T14:09:42;29.45;26.57
65369;HTU21D;51970;53.484;49.488;2022-08-24T14:17:27;29.35;26.40
65369;HTU21D;51970;53.484;49.488;2022-08-24T14:20:17;29.29;25.88
65369;HTU21D;51970;53.484;49.488;2022-08-24T14:23:21;29.26;26.87
65369;HTU21D;51970;53.484;49.488;2022-08-24T14:25:49;29.30;25.05
65369;HTU21D;51970;53.484;49.488;2022-08-24T14:28:39;29.72;24.72
65369;HTU21D;51970;53.484;49.488;2022-08-24T14:31:16;30.41;24.15
65369;HTU21D;51970;53.484;49.488;2022-08-24T14:33:54;30.87;23.54
65369;HTU21D;51970;53.484;49.488;2022-08-24T14:36:59;31.35;23.35
65369;HTU21D;51970;53.484;49.488;2022-08-24T14:42:23;31.45;26.25
65369;HTU21D;51970;53.484;49.488;2022-08-24T14:50:26;29.62;33.39
65369;HTU21D;51970;53.484;49.488;2022-08-24T14:58:26;28.38;34.76
65369;HTU21D;51970;53.484;49.488;2022-08-24T15:06:55;27.93;33.20
65369;HTU21D;51970;53.484;49.488;2022-08-24T15:09:25;27.91;33.20
65369;HTU21D;51970;53.484;49.488;2022-08-24T15:12:04;27.85;33.60
65369;HTU21D;51970;53.484;49.488;2022-08-24T15:14:47;27.78;33.44
65369;HTU21D;51970;53.484;49.488;2022-08-24T15:17:20;27.68;33.64
65369;HTU21D;51970;53.484;49.488;2022-08-24T15:22:37;27.45;33.54
65369;HTU21D;51970;53.484;49.488;2022-08-24T15:27:56;27.24;34.78
65369;HTU21D;51970;53.484;49.488;2022-08-24T15:30:26;27.08;39.30
65369;HTU21D;51970;53.484;49.488;2022-08-24T15:33:12;26.84;38.92
65369;HTU21D;51970;53.484;49.488;2022-08-24T15:35:42;26.55;39.07
65369;HTU21D;51970;53.484;49.488;2022-08-24T15:38:35;26.35;39.68
65369;HTU21D;51970;53.484;49.488;2022-08-24T15:41:13;26.15;40.10
65369;HTU21D;51970;53.484;49.488;2022-08-24T15:43:47;25.99;39.92
65369;HTU21D;51970;53.484;49.488;2022-08-24T15:46:19;25.96;40.59
65369;HTU21D;51970;53.484;49.488;2022-08-24T15:48:47;25.88;41.39
65369;HTU21D;51970;53.484;49.488;2022-08-24T15:51:42;25.81;41.21
65369;HTU21D;51970;53.484;49.488;2022-08-24T15:56:49;25.35;42.98
65369;HTU21D;51970;53.484;49.488;2022-08-24T16:02:16;24.99;42.59
65369;HTU21D;51970;53.484;49.488;2022-08-24T16:08:07;24.88;43.67
65369;HTU21D;51970;53.484;49.488;2022-08-24T16:10:47;24.91;43.33
65369;HTU21D;51970;53.484;49.488;2022-08-24T16:18:22;24.41;45.79
65369;HTU21D;51970;53.484;49.488;2022-08-24T16:20:50;24.34;47.75
65369;HTU21D;51970;53.484;49.488;2022-08-24T16:23:23;24.33;47.68
65369;HTU21D;51970;53.484;49.488;2022-08-24T16:28:42;24.26;47.37
65369;HTU21D;51970;53.484;49.488;2022-08-24T16:31:08;24.19;47.92
65369;HTU21D;51970;53.484;49.488;2022-08-24T16:36:09;23.85;48.44
65369;HTU21D;51970;53.484;49.488;2022-08-24T16:38:37;23.77;49.18
65369;HTU21D;51970;53.484;49.488;2022-08-24T16:41:07;23.72;48.89
65369;HTU21D;51970;53.484;49.488;2022-08-24T16:43:35;23.73;48.48
65369;HTU21D;51970;53.484;49.488;2022-08-24T16:46:04;23.72;48.02
65369;HTU21D;51970;53.484;49.488;2022-08-24T16:48:30;23.60;49.31
65369;HTU21D;51970;53.484;49.488;2022-08-24T16:50:56;23.45;49.45
65369;HTU21D;51970;53.484;49.488;2022-08-24T16:53:22;23.32;50.29
65369;HTU21D;51970;53.484;49.488;2022-08-24T16:55:50;23.13;50.97
65369;HTU21D;51970;53.484;49.488;2022-08-24T16:58:17;22.96;51.43
65369;HTU21D;51970;53.484;49.488;2022-08-24T17:00:43;22.96;50.61
65369;HTU21D;51970;53.484;49.488;2022-08-24T17:03:11;22.96;50.75
65369;HTU21D;51970;53.484;49.488;2022-08-24T17:05:38;22.83;51.70
65369;HTU21D;51970;53.484;49.488;2022-08-24T17:08:04;22.75;51.79
65369;HTU21D;51970;53.484;49.488;2022-08-24T17:10:30;22.61;52.17
65369;HTU21D;51970;53.484;49.488;2022-08-24T17:12:57;22.52;52.44
65369;HTU21D;51970;53.484;49.488;2022-08-24T17:15:23;22.50;52.49
65369;HTU21D;51970;53.484;49.488;2022-08-24T17:18:04;22.50;52.34
65369;HTU21D;51970;53.484;49.488;2022-08-24T17:20:31;22.68;52.01
65369;HTU21D;51970;53.484;49.488;2022-08-24T17:22:57;22.57;52.33
65369;HTU21D;51970;53.484;49.488;2022-08-24T17:25:25;22.47;52.93
65369;HTU21D;51970;53.484;49.488;2022-08-24T17:27:52;22.40;52.93
65369;HTU21D;51970;53.484;49.488;2022-08-24T17:30:20;22.41;53.10
65369;HTU21D;51970;53.484;49.488;2022-08-24T17:32:49;22.32;53.45
65369;HTU21D;51970;53.484;49.488;2022-08-24T17:35:16;22.26;53.39
65369;HTU21D;51970;53.484;49.488;2022-08-24T17:37:43;22.22;53.65
65369;HTU21D;51970;53.484;49.488;2022-08-24T17:40:13;22.20;53.81
65369;HTU21D;51970;53.484;49.488;2022-08-24T17:42:40;22.19;53.93
65369;HTU21D;51970;53.484;49.488;2022-08-24T17:45:06;22.11;54.12
65369;HTU21D;51970;53.484;49.488;2022-08-24T17:47:33;22.07;54.23
65369;HTU21D;51970;53.484;49.488;2022-08-24T17:49:59;22.04;54.61
65369;HTU21D;51970;53.484;49.488;2022-08-24T17:52:25;21.98;54.47
65369;HTU21D;51970;53.484;49.488;2022-08-24T17:54:52;21.90;54.98
65369;HTU21D;51970;53.484;49.488;2022-08-24T17:57:22;21.77;55.84
65369;HTU21D;51970;53.484;49.488;2022-08-24T17:59:50;21.74;55.60
65369;HTU21D;51970;53.484;49.488;2022-08-24T18:02:18;21.67;55.90
65369;HTU21D;51970;53.484;49.488;2022-08-24T18:04:44;21.57;56.37
65369;HTU21D;51970;53.484;49.488;2022-08-24T18:07:13;21.51;56.19
65369;HTU21D;51970;53.484;49.488;2022-08-24T18:09:57;21.45;56.77
65369;HTU21D;51970;53.484;49.488;2022-08-24T18:12:25;21.34;57.11
65369;HTU21D;51970;53.484;49.488;2022-08-24T18:14:52;21.30;56.74
65369;HTU21D;51970;53.484;49.488;2022-08-24T18:17:21;21.20;57.74
65369;HTU21D;51970;53.484;49.488;2022-08-24T18:19:47;21.14;57.87
65369;HTU21D;51970;53.484;49.488;2022-08-24T18:22:14;21.08;57.91
65369;HTU21D;51970;53.484;49.488;2022-08-24T18:24:41;21.08;58.22
65369;HTU21D;51970;53.484;49.488;2022-08-24T18:27:20;21.03;58.33
65369;HTU21D;51970;53.484;49.488;2022-08-24T18:29:48;20.96;58.97
65369;HTU21D;51970;53.484;49.488;2022-08-24T18:32:15;20.92;58.74
65369;HTU21D;51970;53.484;49.488;2022-08-24T18:34:41;20.94;58.74
65369;HTU21D;51970;53.484;49.488;2022-08-24T18:37:07;20.88;59.02
65369;HTU21D;51970;53.484;49.488;2022-08-24T18:39:33;20.86;59.12
65369;HTU21D;51970;53.484;49.488;2022-08-24T18:42:00;20.79;59.38
65369;HTU21D;51970;53.484;49.488;2022-08-24T18:44:27;20.84;59.13
65369;HTU21D;51970;53.484;49.488;2022-08-24T18:46:53;20.77;59.90
65369;HTU21D;51970;53.484;49.488;2022-08-24T18:49:20;20.73;60.03
65369;HTU21D;51970;53.484;49.488;2022-08-24T18:51:46;20.72;60.02
65369;HTU21D;51970;53.484;49.488;2022-08-24T18:54:35;20.63;60.23
65369;HTU21D;51970;53.484;49.488;2022-08-24T18:57:02;20.62;60.12
65369;HTU21D;51970;53.484;49.488;2022-08-24T18:59:28;20.63;60.15
65369;HTU21D;51970;53.484;49.488;2022-08-24T19:01:55;20.66;60.09
65369;HTU21D;51970;53.484;49.488;2022-08-24T19:04:46;20.62;60.14
65369;HTU21D;51970;53.484;49.488;2022-08-24T19:07:13;20.65;60.03
65369;HTU21D;51970;53.484;49.488;2022-08-24T19:09:39;20.63;59.84
65369;HTU21D;51970;53.484;49.488;2022-08-24T19:12:05;20.57;60.44
65369;HTU21D;51970;53.484;49.488;2022-08-24T19:14:32;20.48;60.93